Time;durP1;ratioP1;P1;durP2;ratioP2;P2;SDS_P1;SDS_P2;PMS_P1;PMS_P2;Temp;Humidity;BMP_temperature;BMP_pressure;BME280_temperature;BME280_humidity;BME280_pressure;Samples;Min_cycle;Max_cycle;Signal;HPM_P1;HPM_P2
2022/09/27 00:02:03;;;;;;;1.60;1.10;;;;;;;11.67;100.00;95186.88;4910727;29;20212;-57
2022/09/27 00:04:29;;;;;;;1.33;1.23;;;;;;;11.72;100.00;95191.66;4910099;29;20280;-58
2022/09/27 00:06:56;;;;;;;1.73;1.63;;;;;;;11.65;100.00;95185.44;4911131;29;20244;-58
2022/09/27 00:09:23;;;;;;;1.30;1.20;;;;;;;11.67;99.50;95194.81;4914408;29;20235;-58
2022/09/27 00:11:49;;;;;;;1.97;1.50;;;;;;;11.68;100.00;95185.06;4916423;29;21383;-58
2022/09/27 00:14:17;;;;;;;1.27;1.23;;;;;;;11.66;100.00;95187.06;4920080;29;20210;-58
2022/09/27 00:16:45;;;;;;;1.83;1.63;;;;;;;11.64;100.00;95183.78;4917033;29;20510;-59
2022/09/27 00:19:14;;;;;;;1.50;1.40;;;;;;;11.59;100.00;95180.84;4917609;29;20208;-58
2022/09/27 00:21:42;;;;;;;2.13;1.43;;;;;;;11.52;100.00;95175.47;4917084;29;20263;-57
2022/09/27 00:24:12;;;;;;;1.43;1.30;;;;;;;11.55;100.00;95175.09;4916592;29;20219;-57
2022/09/27 00:26:38;;;;;;;1.63;1.50;;;;;;;11.54;100.00;95184.06;4911941;29;20228;-58
2022/09/27 00:29:05;;;;;;;1.97;1.73;;;;;;;11.54;100.00;95168.19;4913985;29;20236;-57
2022/09/27 00:31:32;;;;;;;1.37;1.27;;;;;;;11.53;100.00;95185.06;4917228;29;20200;-58
2022/09/27 00:34:01;;;;;;;1.43;1.33;;;;;;;11.55;100.00;95167.16;4913943;29;20244;-57
2022/09/27 00:36:29;;;;;;;1.50;1.40;;;;;;;11.54;100.00;95176.13;4910959;29;20212;-58
2022/09/27 00:38:58;;;;;;;1.50;1.40;;;;;;;11.60;100.00;95170.09;4907698;29;20212;-57
2022/09/27 00:41:27;;;;;;;2.63;1.50;;;;;;;11.62;100.00;95176.00;4908019;29;20713;-58
2022/09/27 00:43:55;;;;;;;1.60;1.50;;;;;;;11.58;100.00;95174.75;4907589;29;20231;-57
2022/09/27 00:46:27;;;;;;;1.50;1.43;;;;;;;11.66;100.00;95172.00;4906842;29;20208;-58
2022/09/27 00:49:02;;;;;;;1.73;1.53;;;;;;;11.66;100.00;95182.56;4907760;29;20216;-58
2022/09/27 00:51:29;;;;;;;1.80;1.47;;;;;;;11.77;100.00;95182.13;4907883;29;20279;-57
2022/09/27 00:53:58;;;;;;;1.93;1.47;;;;;;;11.76;98.81;95177.84;4907685;29;20232;-58
2022/09/27 00:56:27;;;;;;;1.97;1.43;;;;;;;11.90;99.06;95170.91;4907761;29;20224;-57
2022/09/27 00:58:56;;;;;;;1.70;1.60;;;;;;;11.84;97.19;95180.38;4907740;29;20290;-57
2022/09/27 01:01:23;;;;;;;1.93;1.60;;;;;;;11.79;98.35;95174.84;4907582;29;20288;-58
2022/09/27 01:03:53;;;;;;;1.57;1.43;;;;;;;11.78;97.62;95167.91;4907591;29;20574;-57
2022/09/27 01:06:22;;;;;;;1.43;1.20;;;;;;;11.81;97.38;95164.88;4907405;29;20256;-57
2022/09/27 01:08:48;;;;;;;1.47;1.37;;;;;;;11.80;97.16;95163.22;4907532;29;20240;-58
2022/09/27 01:11:25;;;;;;;2.80;1.37;;;;;;;11.79;99.19;95166.91;4907339;29;20247;-57
2022/09/27 01:14:07;;;;;;;1.57;1.47;;;;;;;11.86;98.89;95182.88;4906927;29;20245;-57
2022/09/27 01:16:41;;;;;;;2.50;1.50;;;;;;;11.83;98.01;95176.09;4907813;29;20213;-56
2022/09/27 01:19:17;;;;;;;1.60;1.50;;;;;;;11.83;98.01;95165.50;4907171;29;20243;-57
2022/09/27 01:21:50;;;;;;;2.13;1.40;;;;;;;11.81;96.90;95158.75;4907432;29;20231;-57
2022/09/27 01:24:57;;;;;;;1.67;1.33;;;;;;;11.90;95.70;95163.75;4907889;29;20655;-58
2022/09/27 01:27:57;;;;;;;1.67;1.53;;;;;;;11.85;96.41;95155.56;4895980;29;20290;-59
2022/09/27 01:30:28;;;;;;;1.10;1.10;;;;;;;11.83;97.70;95157.56;4906724;29;20204;-57
2022/09/27 01:33:07;;;;;;;1.47;1.37;;;;;;;11.87;97.66;95153.53;4889929;29;20211;-57
2022/09/27 01:35:38;;;;;;;1.00;1.00;;;;;;;11.83;99.44;95164.69;4907311;29;20208;-56
2022/09/27 01:38:12;;;;;;;1.10;1.10;;;;;;;11.79;98.04;95160.78;4907408;29;20276;-57
2022/09/27 01:40:44;;;;;;;1.40;1.30;;;;;;;11.81;97.84;95159.56;4907396;29;20246;-56
2022/09/27 01:43:15;;;;;;;2.43;1.30;;;;;;;11.81;99.63;95158.75;4906901;29;20736;-56
2022/09/27 01:45:47;;;;;;;2.10;1.30;;;;;;;11.81;99.79;95148.16;4906673;29;20802;-58
2022/09/27 01:48:17;;;;;;;1.33;1.20;;;;;;;11.80;99.98;95157.94;4906955;29;20544;-57
2022/09/27 01:50:48;;;;;;;1.37;1.30;;;;;;;11.90;98.42;95162.94;4906718;29;20870;-57
2022/09/27 01:53:17;;;;;;;1.43;1.30;;;;;;;11.82;100.00;95152.47;4906943;29;20690;-56
2022/09/27 01:55:45;;;;;;;1.40;1.30;;;;;;;11.82;99.37;95155.09;4906650;29;20863;-58
2022/09/27 01:58:14;;;;;;;1.43;1.30;;;;;;;11.78;99.70;95157.31;4906555;29;20218;-57
2022/09/27 02:00:45;;;;;;;1.70;1.00;;;;;;;11.81;100.00;95167.53;4906284;29;20236;-57
2022/09/27 02:03:14;;;;;;;0.90;0.90;;;;;;;11.74;100.00;95169.28;4906447;29;20598;-56
2022/09/27 02:05:45;;;;;;;1.40;1.30;;;;;;;11.79;100.00;95176.66;4906896;29;20220;-57
2022/09/27 02:08:18;;;;;;;1.30;1.27;;;;;;;11.62;100.00;95189.25;4907067;29;20215;-58
2022/09/27 02:10:47;;;;;;;1.70;1.50;;;;;;;11.61;100.00;95187.63;4906956;29;20350;-57
2022/09/27 02:13:19;;;;;;;1.30;1.20;;;;;;;11.59;100.00;95192.25;4905888;29;20631;-58
2022/09/27 02:15:53;;;;;;;1.50;1.30;;;;;;;11.52;100.00;95186.06;4906192;29;20193;-57
2022/09/27 02:18:27;;;;;;;1.50;1.20;;;;;;;11.43;100.00;95189.84;4906409;29;20240;-57
2022/09/27 02:20:56;;;;;;;1.47;1.20;;;;;;;11.43;100.00;95184.53;4906533;29;20295;-58
2022/09/27 02:23:26;;;;;;;0.80;0.80;;;;;;;11.38;100.00;95194.84;4906387;29;20216;-59
2022/09/27 02:25:56;;;;;;;1.37;0.80;;;;;;;11.25;100.00;95205.25;4906179;29;20235;-58
2022/09/27 02:28:26;;;;;;;1.03;0.90;;;;;;;11.21;100.00;95193.38;4905887;29;20226;-57
2022/09/27 02:30:54;;;;;;;1.03;1.00;;;;;;;11.14;100.00;95197.75;4906428;29;20239;-58
2022/09/27 02:33:24;;;;;;;0.87;0.87;;;;;;;11.22;100.00;95200.31;4907341;29;20252;-57
2022/09/27 02:35:51;;;;;;;1.20;1.10;;;;;;;11.09;100.00;95198.28;4910269;29;20589;-58
2022/09/27 02:38:18;;;;;;;1.07;0.97;;;;;;;11.16;100.00;95193.13;4906158;29;20670;-58
2022/09/27 02:40:46;;;;;;;0.97;0.90;;;;;;;11.24;100.00;95198.31;4906156;29;20204;-59
2022/09/27 02:43:15;;;;;;;0.60;0.60;;;;;;;11.11;100.00;95201.59;4905209;29;20267;-58
2022/09/27 02:45:51;;;;;;;0.60;0.60;;;;;;;11.24;100.00;95203.59;4908127;29;20247;-58
2022/09/27 02:48:24;;;;;;;0.83;0.83;;;;;;;11.12;100.00;95207.72;4908286;29;20267;-58
2022/09/27 02:51:06;;;;;;;0.60;0.60;;;;;;;11.01;100.00;95202.88;4907356;29;20232;-58
2022/09/27 02:53:44;;;;;;;1.80;0.67;;;;;;;10.95;100.00;95213.16;4905450;29;20267;-57
2022/09/27 02:56:19;;;;;;;3.73;1.10;;;;;;;10.99;100.00;95206.50;4905347;29;20240;-58
2022/09/27 02:58:53;;;;;;;1.00;0.80;;;;;;;10.97;100.00;95213.81;4906115;29;20317;-58
2022/09/27 03:01:23;;;;;;;0.60;0.60;;;;;;;10.96;100.00;95220.09;4906276;29;20232;-58
2022/09/27 03:03:55;;;;;;;0.80;0.80;;;;;;;10.92;100.00;95226.75;4905949;29;20633;-58
2022/09/27 03:06:23;;;;;;;0.90;0.70;;;;;;;10.94;100.00;95218.63;4906149;29;20283;-58
2022/09/27 03:08:50;;;;;;;0.70;0.70;;;;;;;10.92;100.00;95215.34;4909552;29;20222;-58
2022/09/27 03:11:17;;;;;;;0.70;0.70;;;;;;;10.85;100.00;95207.31;4911925;29;20243;-58
2022/09/27 03:13:44;;;;;;;0.93;0.50;;;;;;;10.81;100.00;95207.81;4912641;29;20939;-58
2022/09/27 03:16:12;;;;;;;0.83;0.63;;;;;;;10.94;100.00;95213.34;4913750;29;20232;-58
2022/09/27 03:18:38;;;;;;;0.90;0.60;;;;;;;10.88;100.00;95220.16;4915226;29;20555;-58
2022/09/27 03:21:06;;;;;;;0.57;0.57;;;;;;;10.85;100.00;95225.81;4915608;29;20211;-58
2022/09/27 03:23:33;;;;;;;0.70;0.70;;;;;;;10.88;100.00;95229.91;4913090;29;20263;-58
2022/09/27 03:26:00;;;;;;;0.67;0.67;;;;;;;10.81;100.00;95227.16;4911464;29;20294;-58
2022/09/27 03:28:28;;;;;;;1.80;0.80;;;;;;;10.87;100.00;95228.28;4912475;29;20307;-59
2022/09/27 03:30:55;;;;;;;0.77;0.70;;;;;;;10.87;100.00;95228.28;4911632;29;20705;-58
2022/09/27 03:33:21;;;;;;;1.30;0.60;;;;;;;10.92;100.00;95231.19;4911892;29;20267;-58
2022/09/27 03:35:48;;;;;;;0.60;0.60;;;;;;;10.85;100.00;95232.91;4911995;29;20276;-58
2022/09/27 03:38:16;;;;;;;2.50;0.73;;;;;;;10.84;100.00;95240.03;4911394;29;20243;-58
2022/09/27 03:40:43;;;;;;;0.43;0.43;;;;;;;10.70;100.00;95237.38;4911542;29;20301;-58
2022/09/27 03:43:10;;;;;;;0.50;0.50;;;;;;;10.75;100.00;95238.47;4911666;29;20302;-58
2022/09/27 03:45:36;;;;;;;1.80;0.83;;;;;;;10.86;100.00;95251.25;4911136;29;20290;-56
2022/09/27 03:48:03;;;;;;;0.40;0.40;;;;;;;10.86;100.00;95253.09;4911804;29;20247;-58
2022/09/27 03:50:30;;;;;;;0.80;0.70;;;;;;;10.87;100.00;95249.44;4911383;29;20248;-57
2022/09/27 03:52:56;;;;;;;1.33;0.80;;;;;;;10.91;100.00;95248.09;4911024;29;20248;-57
2022/09/27 03:55:24;;;;;;;1.07;0.93;;;;;;;10.91;100.00;95240.94;4911642;29;20239;-58
2022/09/27 03:57:51;;;;;;;1.60;0.60;;;;;;;10.80;100.00;95251.16;4911269;29;20588;-57
2022/09/27 04:00:18;;;;;;;0.67;0.67;;;;;;;10.84;100.00;95245.31;4912336;29;20801;-58
2022/09/27 04:02:45;;;;;;;0.93;0.93;;;;;;;10.93;100.00;95243.44;4911463;29;20241;-56
2022/09/27 04:05:12;;;;;;;0.73;0.70;;;;;;;10.85;100.00;95252.25;4911657;29;20254;-57
2022/09/27 04:07:39;;;;;;;0.80;0.80;;;;;;;10.83;100.00;95254.28;4911462;29;20590;-58
2022/09/27 04:10:06;;;;;;;2.80;1.10;;;;;;;10.77;100.00;95244.38;4895786;29;20214;-57
2022/09/27 04:12:35;;;;;;;1.50;0.70;;;;;;;10.76;100.00;95253.34;4913266;29;20219;-58
2022/09/27 04:15:03;;;;;;;1.07;0.63;;;;;;;10.66;100.00;95249.28;4915217;29;20239;-57
2022/09/27 04:17:29;;;;;;;0.70;0.70;;;;;;;10.66;100.00;95252.75;4914250;29;20207;-58
2022/09/27 04:19:56;;;;;;;2.67;0.70;;;;;;;10.60;100.00;95253.44;4912527;29;20205;-57
2022/09/27 04:22:23;;;;;;;2.03;1.00;;;;;;;10.57;100.00;95248.53;4918851;29;20267;-59
2022/09/27 04:24:50;;;;;;;1.07;0.90;;;;;;;10.49;100.00;95249.41;4910540;29;20215;-59
2022/09/27 04:27:17;;;;;;;1.30;0.80;;;;;;;10.49;100.00;95251.22;4909195;29;20235;-57
2022/09/27 04:29:45;;;;;;;1.73;1.07;;;;;;;10.49;100.00;95256.50;4908765;29;20271;-58
2022/09/27 04:32:12;;;;;;;1.53;0.60;;;;;;;10.46;100.00;95257.69;4909569;29;21575;-58
2022/09/27 04:37:23;;;;;;;2.00;0.63;;;;;;;10.52;100.00;95252.72;4909023;29;20211;-57
2022/09/27 04:39:49;;;;;;;1.73;0.90;;;;;;;10.52;100.00;95253.53;4909862;29;20223;-60
2022/09/27 04:42:17;;;;;;;0.80;0.80;;;;;;;10.41;100.00;95260.03;4910066;29;20244;-58
2022/09/27 04:44:46;;;;;;;2.20;0.90;;;;;;;10.49;100.00;95261.78;4908385;29;20235;-59
2022/09/27 04:47:13;;;;;;;1.93;0.90;;;;;;;10.53;100.00;95265.72;4908068;29;20279;-58
2022/09/27 04:49:40;;;;;;;2.93;0.80;;;;;;;10.50;100.00;95268.72;4907178;29;20276;-58
2022/09/27 04:52:07;;;;;;;1.17;0.70;;;;;;;10.37;100.00;95268.50;4908778;29;20662;-58
2022/09/27 04:54:35;;;;;;;0.80;0.70;;;;;;;10.37;100.00;95273.78;4909087;29;21370;-58
2022/09/27 04:57:01;;;;;;;2.40;0.80;;;;;;;10.30;100.00;95275.47;4908376;29;20335;-57
2022/09/27 04:59:28;;;;;;;0.70;0.70;;;;;;;10.33;100.00;95275.13;4908031;29;20239;-59
2022/09/27 05:01:58;;;;;;;0.50;0.50;;;;;;;10.28;100.00;95266.88;4907866;29;20243;-58
2022/09/27 05:04:25;;;;;;;0.60;0.53;;;;;;;10.39;100.00;95279.69;4907639;29;20213;-59
2022/09/27 05:06:51;;;;;;;3.40;0.60;;;;;;;10.34;100.00;95289.97;4907187;29;20676;-59
2022/09/27 05:09:18;;;;;;;0.63;0.63;;;;;;;10.32;100.00;95284.03;4907994;29;20271;-58
2022/09/27 05:11:45;;;;;;;0.90;0.70;;;;;;;10.31;100.00;95291.13;4908113;29;20311;-58
2022/09/27 05:14:12;;;;;;;1.40;0.50;;;;;;;10.33;100.00;95291.81;4907957;29;20221;-59
2022/09/27 05:16:39;;;;;;;1.07;0.73;;;;;;;10.31;100.00;95288.50;4907789;29;20200;-59
2022/09/27 05:19:07;;;;;;;1.50;0.80;;;;;;;10.31;100.00;95307.00;4907720;29;20201;-58
2022/09/27 05:21:34;;;;;;;1.27;0.67;;;;;;;10.29;100.00;95303.72;4907353;29;20239;-59
2022/09/27 05:24:01;;;;;;;1.40;0.73;;;;;;;10.29;100.00;95305.53;4907578;29;20644;-59
2022/09/27 05:26:27;;;;;;;1.60;0.97;;;;;;;10.23;100.00;95295.66;4907211;29;20259;-59
2022/09/27 05:28:54;;;;;;;3.50;0.70;;;;;;;10.22;100.00;95308.03;4908673;29;20243;-59
2022/09/27 05:31:21;;;;;;;0.67;0.50;;;;;;;10.29;100.00;95313.44;4907069;29;20723;-59
2022/09/27 05:33:47;;;;;;;2.10;0.70;;;;;;;10.26;100.00;95319.91;4907485;29;20648;-59
2022/09/27 05:36:15;;;;;;;0.70;0.70;;;;;;;10.37;100.00;95318.69;4907778;29;20684;-58
2022/09/27 05:38:42;;;;;;;0.53;0.37;;;;;;;10.28;100.00;95325.00;4907788;29;20239;-59
2022/09/27 05:41:09;;;;;;;1.30;0.70;;;;;;;10.19;100.00;95329.53;4907341;29;20246;-59
2022/09/27 05:43:36;;;;;;;0.53;0.50;;;;;;;10.09;100.00;95333.34;4907159;29;20302;-60
2022/09/27 05:46:04;;;;;;;1.67;0.57;;;;;;;10.07;100.00;95335.31;4906921;29;20239;-58
2022/09/27 05:48:30;;;;;;;0.60;0.60;;;;;;;10.02;100.00;95336.66;4907054;29;20637;-59
2022/09/27 05:50:57;;;;;;;1.27;0.60;;;;;;;9.94;100.00;95335.88;4906453;29;20654;-59
2022/09/27 05:53:25;;;;;;;0.77;0.77;;;;;;;9.98;100.00;95348.56;4906915;29;20291;-59
2022/09/27 05:55:52;;;;;;;7.47;1.60;;;;;;;10.06;100.00;95341.59;4907192;29;20268;-58
2022/09/27 05:58:19;;;;;;;7.07;1.23;;;;;;;10.07;100.00;95337.94;4906602;29;20243;-59
2022/09/27 06:00:46;;;;;;;2.63;1.10;;;;;;;10.08;100.00;95347.53;4907287;29;20294;-59
2022/09/27 06:03:13;;;;;;;1.50;0.80;;;;;;;10.09;100.00;95357.09;4906442;29;20211;-59
2022/09/27 06:05:41;;;;;;;1.07;0.83;;;;;;;10.12;100.00;95351.47;4905986;29;20215;-59
2022/09/27 06:08:09;;;;;;;1.60;1.10;;;;;;;10.12;100.00;95347.03;4906409;29;20709;-59
2022/09/27 06:10:38;;;;;;;1.70;0.90;;;;;;;10.17;100.00;95352.63;4907467;29;20240;-59
2022/09/27 06:13:06;;;;;;;2.20;0.90;;;;;;;10.17;100.00;95357.91;4906526;29;20228;-59
2022/09/27 06:15:34;;;;;;;1.80;0.70;;;;;;;10.29;100.00;95368.94;4906042;29;20212;-59
2022/09/27 06:18:04;;;;;;;1.27;0.90;;;;;;;10.26;100.00;95377.22;4906000;29;21474;-59
2022/09/27 06:20:31;;;;;;;0.80;0.50;;;;;;;10.26;100.00;95372.75;4906267;29;20218;-58
2022/09/27 06:23:04;;;;;;;0.90;0.70;;;;;;;10.23;100.00;95373.09;4906353;29;20535;-59
2022/09/27 06:25:31;;;;;;;1.90;0.90;;;;;;;10.14;100.00;95370.59;4906728;29;20204;-59
2022/09/27 06:27:59;;;;;;;1.53;1.10;;;;;;;10.05;100.00;95369.00;4906771;29;20248;-59
2022/09/27 06:30:26;;;;;;;0.60;0.60;;;;;;;10.18;100.00;95382.50;4906086;29;20240;-59
2022/09/27 06:32:56;;;;;;;0.93;0.60;;;;;;;10.26;100.00;95387.78;4906538;29;20220;-58
2022/09/27 06:35:23;;;;;;;1.07;0.53;;;;;;;10.26;100.00;95387.78;4906309;29;20208;-59
2022/09/27 06:37:50;;;;;;;0.50;0.50;;;;;;;10.23;100.00;95396.03;4906968;29;20236;-59
2022/09/27 06:40:17;;;;;;;2.70;0.80;;;;;;;10.29;100.00;95398.81;4906198;29;20534;-59
2022/09/27 06:42:44;;;;;;;1.60;0.60;;;;;;;10.23;100.00;95409.25;4905921;29;20208;-59
2022/09/27 06:45:12;;;;;;;1.00;0.80;;;;;;;10.30;100.00;95415.50;4906404;29;20691;-59
2022/09/27 06:47:39;;;;;;;1.33;0.90;;;;;;;10.27;100.00;95410.56;4906082;29;20264;-59
2022/09/27 06:50:07;;;;;;;1.53;0.53;;;;;;;10.30;100.00;95402.28;4906066;29;20634;-59
2022/09/27 06:52:34;;;;;;;1.00;0.80;;;;;;;10.29;100.00;95412.03;4906505;29;20232;-60
2022/09/27 06:55:01;;;;;;;0.80;0.70;;;;;;;10.23;100.00;95410.09;4906326;29;20212;-59
2022/09/27 07:00:25;;;;;;;1.17;0.50;;;;;;;10.11;100.00;95416.69;4866662;29;20364;-59
2022/09/27 07:02:52;;;;;;;0.43;0.30;;;;;;;10.23;100.00;95425.94;4907005;29;20204;-59
2022/09/27 07:05:19;;;;;;;1.13;0.60;;;;;;;10.18;100.00;95427.44;4906477;29;20215;-59
2022/09/27 07:07:46;;;;;;;1.33;0.50;;;;;;;10.19;100.00;95424.63;4905553;29;20657;-58
2022/09/27 07:10:13;;;;;;;2.20;0.90;;;;;;;10.11;100.00;95421.13;4906422;29;20687;-58
2022/09/27 07:12:40;;;;;;;1.17;0.50;;;;;;;10.12;100.00;95423.63;4906041;29;20222;-59
2022/09/27 07:15:08;;;;;;;1.07;0.50;;;;;;;10.13;100.00;95440.31;4906531;29;20215;-58
2022/09/27 07:17:36;;;;;;;0.53;0.43;;;;;;;10.14;100.00;95439.28;4905896;29;20209;-58
2022/09/27 07:20:03;;;;;;;0.73;0.50;;;;;;;10.05;100.00;95438.50;4913360;29;20200;-59
2022/09/27 07:22:30;;;;;;;0.40;0.40;;;;;;;10.09;100.00;95439.81;4915065;29;20204;-60
2022/09/27 07:24:59;;;;;;;0.60;0.50;;;;;;;10.20;100.00;95442.09;4909230;29;20287;-59
2022/09/27 07:27:27;;;;;;;2.70;0.50;;;;;;;10.16;100.00;95442.63;4905810;29;20232;-59
2022/09/27 07:29:54;;;;;;;2.00;0.80;;;;;;;10.33;100.00;95444.22;4905981;29;20359;-59
2022/09/27 07:32:21;;;;;;;5.37;1.20;;;;;;;10.43;100.00;95448.31;4906320;29;20207;-59
2022/09/27 07:34:49;;;;;;;0.83;0.60;;;;;;;10.56;100.00;95450.38;4905814;29;20212;-58
2022/09/27 07:37:16;;;;;;;0.90;0.60;;;;;;;10.58;100.00;95455.53;4905429;29;20235;-58
2022/09/27 07:39:43;;;;;;;1.47;0.60;;;;;;;10.75;94.99;95455.28;4905590;29;20216;-58
2022/09/27 07:42:10;;;;;;;1.50;0.90;;;;;;;10.69;95.95;95455.97;4905616;29;20273;-59
2022/09/27 07:44:37;;;;;;;2.33;0.93;;;;;;;10.82;98.16;95464.16;4904770;29;20323;-59
2022/09/27 07:47:06;;;;;;;2.73;0.73;;;;;;;10.96;93.18;95462.59;4905229;29;20767;-59
2022/09/27 07:49:33;;;;;;;2.47;0.77;;;;;;;11.06;92.41;95470.31;4905396;29;20224;-57
2022/09/27 07:52:02;;;;;;;1.20;0.80;;;;;;;11.09;89.79;95476.06;4905396;29;20722;-59
2022/09/27 07:54:28;;;;;;;1.07;0.80;;;;;;;11.11;91.31;95479.38;4906457;29;20272;-58
2022/09/27 07:56:55;;;;;;;1.43;0.73;;;;;;;11.10;91.07;95487.47;4909197;29;20204;-59
2022/09/27 07:59:22;;;;;;;2.13;0.90;;;;;;;11.12;98.15;95485.50;4908428;29;20693;-58
2022/09/27 08:01:48;;;;;;;2.30;1.00;;;;;;;11.25;96.03;95488.38;4909315;29;20207;-58
2022/09/27 08:04:15;;;;;;;0.90;0.77;;;;;;;11.33;98.09;95491.81;4908976;29;20200;-59
2022/09/27 08:06:42;;;;;;;2.67;1.10;;;;;;;11.44;98.30;95490.59;4908776;29;20484;-59
2022/09/27 08:09:10;;;;;;;1.13;0.80;;;;;;;11.44;92.57;95495.88;4909099;29;20217;-59
2022/09/27 08:11:37;;;;;;;2.13;0.93;;;;;;;11.48;92.01;95491.84;4909189;29;20224;-60
2022/09/27 08:14:04;;;;;;;2.97;0.60;;;;;;;11.65;90.13;95503.16;4909005;29;20208;-59
2022/09/27 08:16:33;;;;;;;2.30;0.67;;;;;;;11.58;88.52;95503.06;4909173;29;20205;-59
2022/09/27 08:19:00;;;;;;;2.03;0.80;;;;;;;11.73;92.15;95503.94;4909138;29;20333;-57
2022/09/27 08:21:27;;;;;;;2.03;0.50;;;;;;;11.83;90.91;95493.91;4910022;29;20239;-60
2022/09/27 08:23:53;;;;;;;0.97;0.87;;;;;;;11.88;89.04;95498.69;4910418;29;20301;-59
2022/09/27 08:26:21;;;;;;;2.03;1.00;;;;;;;12.00;88.36;95501.75;4910269;29;20303;-59
2022/09/27 08:28:48;;;;;;;1.40;0.70;;;;;;;11.93;88.94;95499.81;4910959;29;20232;-57
2022/09/27 08:31:15;;;;;;;1.23;0.73;;;;;;;11.90;90.24;95505.44;4909675;29;20259;-60
2022/09/27 08:33:42;;;;;;;1.00;0.90;;;;;;;12.02;87.15;95502.38;4910583;29;20200;-60
2022/09/27 08:36:11;;;;;;;0.83;0.70;;;;;;;12.06;89.43;95498.38;4909771;29;20243;-60
2022/09/27 08:38:38;;;;;;;2.10;1.00;;;;;;;12.08;87.33;95497.19;4909377;29;20232;-59
2022/09/27 08:41:08;;;;;;;1.53;0.80;;;;;;;12.09;86.76;95490.06;4908568;29;20204;-62
2022/09/27 08:43:43;;;;;;;3.50;1.20;;;;;;;12.16;88.88;95501.59;4910326;29;20212;-60
2022/09/27 08:46:19;;;;;;;2.67;1.17;;;;;;;12.29;87.28;95507.09;4889865;29;20920;-59
2022/09/27 08:48:49;;;;;;;1.70;1.37;;;;;;;12.44;83.77;95505.25;4889643;29;20642;-58
2022/09/27 08:51:17;;;;;;;1.90;0.77;;;;;;;12.52;82.47;95499.88;4889163;29;20643;-59
2022/09/27 08:53:49;;;;;;;2.37;1.53;;;;;;;12.55;79.27;95496.88;4888626;29;20710;-59
2022/09/27 08:56:20;;;;;;;3.47;1.50;;;;;;;12.53;84.02;95512.16;4889722;29;20541;-60
2022/09/27 08:58:50;;;;;;;3.33;1.20;;;;;;;12.51;81.10;95505.34;4889174;29;20289;-58
2022/09/27 09:01:17;;;;;;;1.33;1.03;;;;;;;12.45;81.13;95499.78;4889445;29;20201;-59
2022/09/27 09:03:47;;;;;;;1.23;0.77;;;;;;;12.53;84.71;95506.84;4889111;29;20213;-59
2022/09/27 09:06:17;;;;;;;4.23;1.00;;;;;;;12.62;81.68;95510.22;4888377;29;20272;-58
2022/09/27 09:08:53;;;;;;;4.87;0.90;;;;;;;12.52;80.17;95510.50;4889367;29;20341;-58
2022/09/27 09:14:33;;;;;;;2.13;0.90;;;;;;;12.38;82.43;95513.94;4901795;29;20192;-58
2022/09/27 09:17:04;;;;;;;1.03;0.70;;;;;;;12.47;86.09;95502.25;4903371;29;20239;-59
2022/09/27 09:19:47;;;;;;;1.77;0.80;;;;;;;12.47;81.89;95512.84;4909957;29;20204;-58
2022/09/27 09:22:27;;;;;;;1.63;0.77;;;;;;;12.56;78.48;95503.00;4891288;29;20265;-59
2022/09/27 09:25:04;;;;;;;1.30;1.10;;;;;;;12.70;80.97;95497.69;4890092;29;20224;-59
2022/09/27 09:27:36;;;;;;;1.10;1.00;;;;;;;13.00;81.95;95500.31;4889422;29;20618;-59
2022/09/27 09:30:16;;;;;;;2.90;1.33;;;;;;;13.25;78.18;95499.81;4889245;29;20525;-58
2022/09/27 09:32:52;;;;;;;1.57;0.90;;;;;;;13.50;75.86;95492.31;4889343;29;20576;-59
2022/09/27 09:35:22;;;;;;;0.90;0.80;;;;;;;13.49;73.77;95500.50;4888972;29;20236;-58
2022/09/27 09:37:51;;;;;;;1.20;1.10;;;;;;;13.48;76.62;95489.03;4888572;29;20205;-59
2022/09/27 09:40:22;;;;;;;1.93;1.00;;;;;;;13.56;78.40;95494.25;4889084;29;20643;-58
2022/09/27 09:42:54;;;;;;;2.27;1.40;;;;;;;13.54;75.16;95493.59;4910115;29;20200;-58
2022/09/27 09:45:25;;;;;;;2.50;1.30;;;;;;;13.45;73.07;95489.44;4917827;29;20235;-59
2022/09/27 09:47:59;;;;;;;1.83;1.10;;;;;;;13.47;75.59;95474.13;4917471;29;20265;-58
2022/09/27 09:50:29;;;;;;;1.23;0.80;;;;;;;13.42;73.36;95476.53;4923921;29;20243;-57
2022/09/27 09:52:59;;;;;;;1.57;1.00;;;;;;;13.38;74.98;95485.88;4908581;29;20216;-59
2022/09/27 09:55:29;;;;;;;1.57;1.10;;;;;;;13.40;75.21;95481.19;4907797;29;20200;-60
2022/09/27 09:58:04;;;;;;;2.33;0.90;;;;;;;13.38;75.37;95489.38;4907586;29;20203;-58
2022/09/27 10:00:32;;;;;;;2.10;1.10;;;;;;;13.13;72.43;95473.97;4908253;29;20230;-59
2022/09/27 10:02:59;;;;;;;2.50;1.10;;;;;;;13.28;73.94;95482.72;4890278;29;20216;-59
2022/09/27 10:05:27;;;;;;;3.83;1.20;;;;;;;13.34;73.63;95476.63;4906885;29;20263;-58
2022/09/27 10:07:56;;;;;;;2.53;1.73;;;;;;;13.40;73.35;95473.22;4906364;29;20752;-59
2022/09/27 10:10:23;;;;;;;2.70;1.10;;;;;;;13.40;73.26;95475.88;4907065;29;20649;-59
2022/09/27 10:12:51;;;;;;;3.13;1.10;;;;;;;13.32;73.60;95484.00;4907648;29;20399;-59
2022/09/27 10:15:20;;;;;;;1.33;1.03;;;;;;;13.27;77.06;95475.75;4907226;29;20216;-58
2022/09/27 10:17:50;;;;;;;1.97;1.00;;;;;;;13.24;72.22;95473.47;4905057;29;20637;-58
2022/09/27 10:20:25;;;;;;;3.43;1.30;;;;;;;13.17;72.29;95467.28;4906632;29;20208;-59
2022/09/27 10:22:55;;;;;;;2.00;1.20;;;;;;;13.02;73.96;95475.22;4906213;29;20213;-59
2022/09/27 10:25:22;;;;;;;1.13;0.87;;;;;;;12.99;76.10;95472.97;4906714;29;20196;-58
2022/09/27 10:27:50;;;;;;;4.63;1.27;;;;;;;12.92;76.18;95467.56;4907860;29;20255;-59
2022/09/27 10:30:28;;;;;;;2.40;1.30;;;;;;;12.97;77.62;95473.13;4907603;29;20236;-59
2022/09/27 10:32:58;;;;;;;3.43;1.20;;;;;;;12.90;75.57;95466.09;4906951;29;20290;-59
2022/09/27 10:35:37;;;;;;;1.20;1.00;;;;;;;12.79;77.95;95483.31;4907410;29;20268;-57
2022/09/27 10:38:21;;;;;;;2.30;1.20;;;;;;;12.62;81.98;95513.69;4907318;29;20361;-59
2022/09/27 10:40:49;;;;;;;1.57;0.63;;;;;;;12.38;85.39;95508.66;4908395;29;20327;-59
2022/09/27 10:43:27;;;;;;;2.73;1.13;;;;;;;12.20;85.28;95508.16;4907608;29;20264;-59
2022/09/27 10:46:01;;;;;;;1.20;0.93;;;;;;;11.75;90.62;95504.59;4906706;29;20231;-58
2022/09/27 10:48:29;;;;;;;1.37;0.70;;;;;;;11.55;96.28;95492.00;4907224;29;20308;-59
2022/09/27 10:50:59;;;;;;;0.87;0.67;;;;;;;11.53;91.82;95492.16;4906304;29;20279;-59
2022/09/27 10:53:25;;;;;;;1.83;0.87;;;;;;;11.39;92.92;95492.91;4906516;29;20196;-59
2022/09/27 10:55:53;;;;;;;2.93;1.27;;;;;;;11.32;99.65;95489.34;4906564;29;20208;-58
2022/09/27 10:58:27;;;;;;;2.73;1.13;;;;;;;11.36;100.00;95477.41;4907106;29;20200;-60
2022/09/27 11:01:00;;;;;;;2.50;1.00;;;;;;;11.38;100.00;95481.50;4906452;29;20199;-60
2022/09/27 11:03:27;;;;;;;1.37;1.00;;;;;;;11.45;100.00;95481.63;4907394;29;20196;-60
2022/09/27 11:05:58;;;;;;;2.03;1.10;;;;;;;11.40;100.00;95484.81;4906510;29;20204;-59
2022/09/27 11:08:30;;;;;;;1.30;1.10;;;;;;;11.39;100.00;95488.47;4906136;29;20216;-59
2022/09/27 11:11:06;;;;;;;1.83;1.20;;;;;;;11.43;100.00;95494.22;4906315;29;20303;-60
2022/09/27 11:13:34;;;;;;;2.87;1.30;;;;;;;11.35;100.00;95499.56;4906182;29;20542;-59
2022/09/27 11:16:17;;;;;;;3.03;1.33;;;;;;;11.33;100.00;95505.06;4906271;29;20206;-59
2022/09/27 11:18:50;;;;;;;3.30;0.90;;;;;;;11.16;100.00;95507.97;4906090;29;20189;-60
2022/09/27 11:21:24;;;;;;;1.33;0.80;;;;;;;11.12;100.00;95507.50;4906002;29;20235;-59
2022/09/27 11:24:09;;;;;;;1.20;1.07;;;;;;;11.26;100.00;95497.97;4906221;29;20199;-59
2022/09/27 11:26:44;;;;;;;3.70;1.20;;;;;;;11.47;100.00;95501.66;4905354;29;20233;-59
2022/09/27 11:29:21;;;;;;;4.00;1.20;;;;;;;11.49;100.00;95498.81;4906303;29;20282;-59
2022/09/27 11:32:03;;;;;;;3.97;0.97;;;;;;;11.61;100.00;95496.56;4910560;29;20204;-59
2022/09/27 11:34:39;;;;;;;0.70;0.70;;;;;;;11.64;100.00;95491.75;4909725;29;20259;-58
2022/09/27 11:37:16;;;;;;;3.10;0.77;;;;;;;11.76;100.00;95484.25;4909281;29;20220;-59
2022/09/27 11:39:54;;;;;;;1.50;0.80;;;;;;;11.86;100.00;95482.16;4910153;29;20295;-59
2022/09/27 11:42:36;;;;;;;0.77;0.70;;;;;;;11.87;98.38;95479.31;4909727;29;20255;-59
2022/09/27 11:45:19;;;;;;;0.70;0.70;;;;;;;12.09;100.00;95479.47;4909384;29;20295;-59
2022/09/27 11:47:51;;;;;;;2.40;0.97;;;;;;;12.14;96.66;95467.31;4909172;29;20279;-59
2022/09/27 11:50:35;;;;;;;2.53;0.90;;;;;;;12.32;98.88;95464.31;4908839;29;20725;-59